Hanseatic Scout — V2BM2 — position and weather

sailwx.info

Track history (hours):
 
Tides and Currents Weather Stations Pressure Air Temp Water Temp Dewpoint Dewpoint Depression Visibility Wind Speed Wind Dir Waves Ship Positions

Hanseatic Scout

Last reported at 2015-Mar-28 19:16 UTC. Time now 2015-Mar-30 12:56 UTC.
Position N 36°46' W 006°28'.

Length 89 m; draft 6.3 m.

Type: Ship (hazmat cat C). MMSI: 304867000.

Date/timePositionNaut miles runAvg speedWind from/ knotsBaromVisibWave heightAir tempDewpointWater temp
2015-Mar-28 19:16N 36°46' W 006°28'  
2015-Mar-26 08:10N 38°28' W 010°01'18 9.6
2015-Mar-26 06:19N 38°46' W 010°06'  
2015-Mar-22 12:25N 50°32' E 000°02'9 8.6
2015-Mar-22 11:19N 50°35' E 000°17'6 7.4
2015-Mar-22 10:34N 50°36' E 000°25'7 7.2
2015-Mar-22 09:34N 50°38' E 000°36'9 8.9
2015-Mar-22 08:34N 50°43' E 000°48'1211.2
2015-Mar-22 07:32N 50°50' E 001°02'1212.0
2015-Mar-22 06:34N 50°58' E 001°16'1111.4
2015-Mar-22 05:34N 51°05' E 001°30'9 9.3
2015-Mar-22 04:34N 51°11' E 001°41'8 8.1
2015-Mar-22 03:34N 51°18' E 001°49'7 7.3
2015-Mar-22 02:34N 51°24' E 001°54'8 7.8
2015-Mar-22 01:33N 51°31' E 002°02'9 8.6
2015-Mar-22 00:33N 51°37' E 002°11'145 9.6
2015-Mar-21 09:26N 53°29' E 004°42'7 8.4
2015-Mar-21 08:33N 53°32' E 004°54'8 8.4
2015-Mar-21 07:33N 53°35' E 005°07'8 8.2
2015-Mar-21 06:33N 53°38' E 005°20'8 8.0
2015-Mar-21 05:34N 53°40' E 005°33'9 8.8
2015-Mar-21 04:34N 53°43' E 005°47'1010.2
2015-Mar-21 03:33N 53°46' E 006°03'40 9.8
2015-Mar-20 23:29N 53°57' E 007°09'8 8.4
2015-Mar-20 22:34N 53°59' E 007°22'8 8.1
2015-Mar-20 21:33N 54°01' E 007°35'8 7.9
2015-Mar-20 20:33N 54°02' E 007°48'8 8.1
2015-Mar-20 19:33N 54°01' E 008°02'12 8.8
2015-Mar-20 18:11N 53°59' E 008°23'812.1
2015-Mar-20 17:33N 53°58' E 008°35'7 7.2
2015-Mar-20 16:32N 53°52' E 008°43'0 0.0
2015-Mar-20 15:32N 53°52' E 008°43'0 0.0
2015-Mar-20 14:32N 53°52' E 008°43'0 0.0
2015-Mar-20 13:32N 53°52' E 008°43'0 0.0
2015-Mar-20 12:33N 53°52' E 008°43'1 0.9
2015-Mar-20 11:33N 53°52' E 008°44'1 0.6
2015-Mar-20 10:33N 53°52' E 008°45'0 0.4
2015-Mar-20 09:34N 53°52' E 008°45'0 0.2
2015-Mar-20 08:34N 53°52' E 008°44'0 0.0
2015-Mar-20 07:33N 53°52' E 008°44'0 0.0
2015-Mar-20 06:33N 53°52' E 008°44'0 0.0
2015-Mar-20 05:33N 53°52' E 008°44'0 0.0
2015-Mar-20 04:33N 53°52' E 008°44'0 0.0
2015-Mar-20 03:33N 53°52' E 008°44'0 0.0
2015-Mar-20 02:34N 53°52' E 008°44'0 0.0
2015-Mar-20 01:33N 53°52' E 008°44'0 0.0
2015-Mar-20 00:33N 53°52' E 008°44'4 4.1
2015-Mar-19 23:34N 53°50' E 008°51'7 7.0
2015-Mar-19 22:33N 53°52' E 009°02'4 4.3
2015-Mar-19 21:34N 53°54' E 009°09'6 6.1
2015-Mar-19 20:33N 53°58' E 009°16'8 8.2
2015-Mar-19 19:32N 54°06' E 009°20'7 7.4
2015-Mar-19 18:33N 54°11' E 009°29'9 6.8
2015-Mar-19 17:11N 54°17' E 009°40'5 7.6
2015-Mar-19 16:33N 54°21' E 009°46'7 6.9
2015-Mar-19 15:33N 54°21' E 009°58'5 5.0
2015-Mar-19 14:33N 54°22' E 010°06'2 1.6
2015-Mar-19 13:33N 54°22' E 010°09'3 3.1
2015-Mar-19 12:33N 54°24' E 010°12'9 9.3
2015-Mar-19 11:33N 54°31' E 010°23'1010.0
2015-Mar-19 10:33N 54°36' E 010°38'10 9.8
2015-Mar-19 09:33N 54°42' E 010°51'9 8.7
2015-Mar-19 08:33N 54°51' E 010°53'6 6.2
2015-Mar-19 07:33N 54°50' E 011°03'2 2.2
2015-Mar-19 06:27N 54°50' E 011°08'0 0.0
2015-Mar-19 05:30N 54°50' E 011°08'0 0.0
2015-Mar-19 04:33N 54°50' E 011°08'0 0.0
2015-Mar-19 03:33N 54°50' E 011°08'0 0.0
2015-Mar-19 02:33N 54°50' E 011°08'0 0.0
2015-Mar-19 01:33N 54°50' E 011°08'0 0.0
2015-Mar-19 00:30N 54°50' E 011°08'0 0.0
2015-Mar-18 23:33N 54°50' E 011°08'0 0.0
2015-Mar-18 22:33N 54°50' E 011°08'0 0.0
2015-Mar-18 21:30N 54°50' E 011°08'0 0.0
2015-Mar-18 20:33N 54°50' E 011°08'0 0.0
2015-Mar-18 19:30N 54°50' E 011°08'  
Track history (hours):
 
Tides and Currents Weather Stations Pressure Air Temp Water Temp Dewpoint Dewpoint Depression Visibility Wind Speed Wind Dir Waves Ship Positions

Hanseatic Scout

Last reported at 2015-Mar-28 19:16 UTC. Time now 2015-Mar-30 12:56 UTC.
Position N 36°46' W 006°28'.

Length 89 m; draft 6.3 m.

Type: Ship (hazmat cat C). MMSI: 304867000.

Date/timePositionNaut miles runAvg speedWind from/ knotsBaromVisibWave heightAir tempDewpointWater temp
2015-Mar-28 19:16N 36°46' W 006°28'  
2015-Mar-26 08:10N 38°28' W 010°01'18 9.6
2015-Mar-26 06:19N 38°46' W 010°06'  
2015-Mar-22 12:25N 50°32' E 000°02'9 8.6
2015-Mar-22 11:19N 50°35' E 000°17'6 7.4
2015-Mar-22 10:34N 50°36' E 000°25'7 7.2
2015-Mar-22 09:34N 50°38' E 000°36'9 8.9
2015-Mar-22 08:34N 50°43' E 000°48'1211.2
2015-Mar-22 07:32N 50°50' E 001°02'1212.0
2015-Mar-22 06:34N 50°58' E 001°16'1111.4
2015-Mar-22 05:34N 51°05' E 001°30'9 9.3
2015-Mar-22 04:34N 51°11' E 001°41'8 8.1
2015-Mar-22 03:34N 51°18' E 001°49'7 7.3
2015-Mar-22 02:34N 51°24' E 001°54'8 7.8
2015-Mar-22 01:33N 51°31' E 002°02'9 8.6
2015-Mar-22 00:33N 51°37' E 002°11'145 9.6
2015-Mar-21 09:26N 53°29' E 004°42'7 8.4
2015-Mar-21 08:33N 53°32' E 004°54'8 8.4
2015-Mar-21 07:33N 53°35' E 005°07'8 8.2
2015-Mar-21 06:33N 53°38' E 005°20'8 8.0
2015-Mar-21 05:34N 53°40' E 005°33'9 8.8
2015-Mar-21 04:34N 53°43' E 005°47'1010.2
2015-Mar-21 03:33N 53°46' E 006°03'40 9.8
2015-Mar-20 23:29N 53°57' E 007°09'8 8.4
2015-Mar-20 22:34N 53°59' E 007°22'8 8.1
2015-Mar-20 21:33N 54°01' E 007°35'8 7.9
2015-Mar-20 20:33N 54°02' E 007°48'8 8.1
2015-Mar-20 19:33N 54°01' E 008°02'12 8.8
2015-Mar-20 18:11N 53°59' E 008°23'812.1
2015-Mar-20 17:33N 53°58' E 008°35'7 7.2
2015-Mar-20 16:32N 53°52' E 008°43'0 0.0
2015-Mar-20 15:32N 53°52' E 008°43'0 0.0
2015-Mar-20 14:32N 53°52' E 008°43'0 0.0
2015-Mar-20 13:32N 53°52' E 008°43'0 0.0
2015-Mar-20 12:33N 53°52' E 008°43'1 0.9
2015-Mar-20 11:33N 53°52' E 008°44'1 0.6
2015-Mar-20 10:33N 53°52' E 008°45'0 0.4
2015-Mar-20 09:34N 53°52' E 008°45'0 0.2
2015-Mar-20 08:34N 53°52' E 008°44'0 0.0
2015-Mar-20 07:33N 53°52' E 008°44'0 0.0
2015-Mar-20 06:33N 53°52' E 008°44'0 0.0
2015-Mar-20 05:33N 53°52' E 008°44'0 0.0
2015-Mar-20 04:33N 53°52' E 008°44'0 0.0
2015-Mar-20 03:33N 53°52' E 008°44'0 0.0
2015-Mar-20 02:34N 53°52' E 008°44'0 0.0
2015-Mar-20 01:33N 53°52' E 008°44'0 0.0
2015-Mar-20 00:33N 53°52' E 008°44'4 4.1
2015-Mar-19 23:34N 53°50' E 008°51'7 7.0
2015-Mar-19 22:33N 53°52' E 009°02'4 4.3
2015-Mar-19 21:34N 53°54' E 009°09'6 6.1
2015-Mar-19 20:33N 53°58' E 009°16'8 8.2
2015-Mar-19 19:32N 54°06' E 009°20'7 7.4
2015-Mar-19 18:33N 54°11' E 009°29'9 6.8
2015-Mar-19 17:11N 54°17' E 009°40'5 7.6
2015-Mar-19 16:33N 54°21' E 009°46'7 6.9
2015-Mar-19 15:33N 54°21' E 009°58'5 5.0
2015-Mar-19 14:33N 54°22' E 010°06'2 1.6
2015-Mar-19 13:33N 54°22' E 010°09'3 3.1
2015-Mar-19 12:33N 54°24' E 010°12'9 9.3
2015-Mar-19 11:33N 54°31' E 010°23'1010.0
2015-Mar-19 10:33N 54°36' E 010°38'10 9.8
2015-Mar-19 09:33N 54°42' E 010°51'9 8.7
2015-Mar-19 08:33N 54°51' E 010°53'6 6.2
2015-Mar-19 07:33N 54°50' E 011°03'2 2.2
2015-Mar-19 06:27N 54°50' E 011°08'0 0.0
2015-Mar-19 05:30N 54°50' E 011°08'0 0.0
2015-Mar-19 04:33N 54°50' E 011°08'0 0.0
2015-Mar-19 03:33N 54°50' E 011°08'0 0.0
2015-Mar-19 02:33N 54°50' E 011°08'0 0.0
2015-Mar-19 01:33N 54°50' E 011°08'0 0.0
2015-Mar-19 00:30N 54°50' E 011°08'0 0.0
2015-Mar-18 23:33N 54°50' E 011°08'0 0.0
2015-Mar-18 22:33N 54°50' E 011°08'0 0.0
2015-Mar-18 21:30N 54°50' E 011°08'0 0.0
2015-Mar-18 20:33N 54°50' E 011°08'0 0.0
2015-Mar-18 19:30N 54°50' E 011°08'  

Dump ship's entire track history